Data for 10/26/2016

Time Sea-Level Adjusted Pressure Absolute Pressure Temperature Relative Humidity Dew Point   
(mb) (inHg) (mb) (inHg) (C) (F) (%) (C) (F)
00:05 1022 30.18 851 25.13 7.5 45.5 65 1.4 34.5
00:10 1022 30.18 851 25.13 7.5 45.5 65 1.4 34.5
00:15 1022 30.18 851 25.13 7.1 44.8 68 1.6 34.9
00:20 1022 30.18 851 25.13 7.3 45.1 64 1 33.8
00:25 1022 30.18 851 25.13 7.5 45.5 65 1.4 34.5
00:30 1022 30.18 851 25.13 7.4 45.3 65 1.2 34.2
00:35 1022 30.18 851 25.13 7.4 45.2 66 1.5 34.7
00:40 1022 30.18 851 25.13 7.2 44.9 66 1.2 34.2
00:45 1022 30.18 851 25.13 7.3 45.1 66 1.4 34.5
00:50 1022 30.18 851 25.13 7.1 44.8 66 1.2 34.2
00:55 1022 30.18 851 25.13 7 44.6 66 1.1 34
01:00 1022 30.18 851 25.13 7.4 45.4 63 0.9 33.6
01:05 1022 30.18 851 25.13 8 46.3 62 1.1 33.9
01:10 1022 30.18 851 25.13 7.8 46.1 64 1.4 34.5
01:15 1022 30.18 851 25.13 7.7 45.8 63 1 33.8
01:20 1022 30.18 851 25.13 7.8 46.1 63 1.2 34.1
01:25 1022 30.18 851 25.13 7.7 45.8 63 1.1 33.9
01:30 1022 30.18 851 25.13 7.5 45.5 64 1.2 34.1
01:35 1022 30.18 851 25.13 7.2 44.9 65 1.1 34
01:40 1022 30.18 851 25.13 6.9 44.5 66 1 33.9
01:45 1022 30.18 851 25.13 6.9 44.5 66 1 33.8
01:50 1022 30.18 851 25.13 7 44.7 65 1 33.8
01:55 1022 30.18 851 25.13 7.6 45.6 63 1 33.8
02:00 1022 30.18 851 25.13 7.2 45 66 1.2 34.2
02:05 1022 30.18 851 25.13 7.4 45.3 63 0.9 33.6
02:10 1022 30.18 851 25.13 7.5 45.6 63 1 33.8
02:15 1022 30.18 851 25.13 7.5 45.5 63 1 33.9
02:20 1022 30.18 851 25.13 7.6 45.6 64 1.1 34.1
02:25 1022 30.18 851 25.13 7.4 45.3 64 1.1 33.9
02:30 1022 30.18 851 25.13 7.3 45.1 65 1.2 34.2
02:35 1022 30.18 851 25.13 7.4 45.2 64 1 33.8
02:40 1022 30.18 851 25.13 7.5 45.6 62 0.8 33.5
02:45 1022 30.18 851 25.13 7.6 45.7 64 1.2 34.2
02:50 1022 30.18 851 25.13 7.3 45.2 65 1.2 34.1
02:55 1022 30.18 851 25.13 7.2 45 65 1.1 34
03:00 1022 30.18 851 25.13 7.2 45 66 1.3 34.3
03:05 1022 30.18 851 25.13 7.1 44.7 66 1.1 33.9
03:10 1022 30.18 851 25.13 7.1 44.8 65 1.1 34
03:15 1022 30.18 851 25.13 7.2 45 65 1 33.9
03:20 1022 30.18 851 25.13 7.3 45.1 65 1.1 34
03:25 1022 30.18 851 25.13 7.3 45.1 65 1.2 34.2
03:30 1022 30.18 851 25.13 7.1 44.7 65 1 33.9
03:35 1022 30.18 851 25.13 7.2 44.9 65 1.1 34
03:40 1022 30.18 851 25.13 7.1 44.7 67 1.4 34.5
03:45 1022 30.18 851 25.13 6.7 44 69 1.4 34.5
03:50 1022 30.18 851 25.13 6.5 43.6 69 1.2 34.1
03:55 1022 30.18 851 25.13 6.8 44.3 67 1.2 34.1
04:00 1022 30.18 851 25.13 7.2 45 65 1.1 34
04:05 1022 30.18 851 25.13 7.5 45.6 64 1.2 34.1
04:10 1022 30.18 851 25.13 7.9 46.1 63 1.3 34.3
04:15 1022 30.18 851 25.13 7.7 45.9 64 1.3 34.3
04:20 1022 30.18 851 25.13 7.8 46.1 63 1.3 34.4
04:25 1022 30.18 851 25.13 7.7 45.8 64 1.4 34.5
04:30 1022 30.18 851 25.13 7.7 45.8 64 1.2 34.2
04:35 1022 30.18 851 25.13 7.9 46.1 64 1.5 34.6
04:40 1022 30.18 851 25.13 7.7 45.9 64 1.4 34.5
04:45 1022 30.18 851 25.13 7.9 46.2 64 1.4 34.6
04:50 1022 30.18 851 25.13 8 46.5 63 1.4 34.5
04:55 1022 30.18 851 25.13 8.1 46.6 63 1.5 34.8
05:00 1022 30.18 851 25.13 8 46.5 63 1.5 34.8
05:05 1022 30.18 851 25.13 8.1 46.6 63 1.5 34.7
05:10 1022 30.18 851 25.13 8.3 46.9 62 1.5 34.7
05:15 1022 30.18 851 25.13 8.2 46.8 63 1.6 35
05:20 1022 30.18 851 25.13 8.2 46.7 63 1.6 35
05:25 1022 30.18 851 25.13 8.3 46.9 63 1.6 35
05:30 1022 30.18 851 25.13 8.3 46.9 64 1.8 35.3
05:35 1022 30.18 851 25.13 8 46.4 66 2 35.6
05:40 1022 30.18 851 25.13 7.6 45.7 67 2 35.6
05:45 1022 30.18 851 25.13 7.6 45.6 67 1.9 35.4
05:50 1022 30.18 851 25.13 7.8 46 65 1.7 35
05:55 1022 30.18 851 25.13 8.3 46.9 62 1.5 34.7
06:00 1022 30.18 851 25.13 8.5 47.3 63 2 35.6
06:05 1022 30.18 851 25.13 8.4 47.1 63 1.8 35.2
06:10 1022 30.18 851 25.13 8.3 46.9 64 1.9 35.4
06:15 1022 30.18 851 25.13 8.5 47.3 62 1.7 35.1
06:20 1022 30.18 851 25.13 8.7 47.7 62 1.9 35.4
06:25 1022 30.18 851 25.13 8.9 47.9 61 1.8 35.2
06:30 1022 30.18 851 25.13 9.1 48.5 60 1.8 35.3
06:35 1022 30.18 851 25.13 8.8 47.8 63 2.2 36
06:40 1022 30.18 851 25.13 8.3 47 65 2.1 35.7
06:45 1021 30.15 851 25.13 8.2 46.7 64 1.9 35.4
06:50 1021 30.15 850 25.1 8.3 46.9 64 1.8 35.3
06:55 1021 30.15 850 25.1 8.3 47 63 1.8 35.2
07:00 1021 30.15 850 25.1 8.5 47.3 62 1.8 35.2
07:05 1021 30.15 850 25.1 8.6 47.5 61 1.6 35
07:10 1021 30.15 850 25.1 8.7 47.7 61 1.7 35
07:15 1021 30.15 850 25.1 8.8 47.8 61 1.7 35
07:20 1021 30.15 850 25.1 8.9 48.1 60 1.5 34.7
07:25 1021 30.15 850 25.1 9.1 48.5 59 1.5 34.7
07:30 1021 30.15 850 25.1 9.3 48.7 58 1.5 34.8
07:35 1021 30.15 850 25.1 9.5 49 57 1.4 34.4
07:40 1021 30.15 850 25.1 9.7 49.5 56 1.4 34.5
07:45 1021 30.15 850 25.1 9.9 49.8 56 1.7 35
07:50 1021 30.15 850 25.1 9.9 49.9 57 1.9 35.5
07:55 1021 30.15 850 25.1 9.7 49.4 58 1.7 35.1
08:00 1021 30.15 850 25.1 9.4 49 60 2.2 36
08:05 1021 30.15 851 25.13 9.2 48.6 58 1.4 34.6
08:10 1021 30.15 851 25.13 9.5 49 58 1.7 35.1
08:15 1021 30.15 851 25.13 9.3 48.8 58 1.5 34.7
08:20 1021 30.15 851 25.13 9.3 48.8 58 1.5 34.7
08:25 1021 30.15 851 25.13 9.5 49.2 58 1.7 35.1
08:30 1021 30.15 851 25.13 9.7 49.4 57 1.5 34.8
08:35 1021 30.15 851 25.13 10.1 50.2 55 1.4 34.6
08:40 1021 30.15 851 25.13 10.4 50.6 56 2 35.6
08:45 1021 30.15 851 25.13 10.1 50.1 56 1.7 35
08:50 1021 30.15 851 25.13 10.3 50.5 56 1.9 35.3
08:55 1021 30.15 851 25.13 10.2 50.4 56 1.9 35.5
09:00 1021 30.15 851 25.13 10.2 50.3 56 1.9 35.4
09:05 1021 30.15 851 25.13 10.1 50.2 56 1.8 35.3
09:10 1021 30.15 851 25.13 9.9 49.9 57 1.9 35.4
09:15 1021 30.15 851 25.13 9.9 49.8 57 1.8 35.2
09:20 1021 30.15 851 25.13 10.1 50.1 57 2 35.6
09:25 1021 30.15 851 25.13 10.2 50.3 56 1.8 35.2
09:30 1022 30.18 851 25.13 10.4 50.7 55 1.7 35
09:35 1021 30.15 851 25.13 10.7 51.2 53 1.5 34.7
09:40 1021 30.15 851 25.13 11 51.8 53 1.8 35.2
09:45 1021 30.15 851 25.13 11 51.8 53 1.8 35.3
09:50 1022 30.18 851 25.13 11.1 52 52 1.6 35
09:55 1022 30.18 851 25.13 11.4 52.4 51 1.6 34.9
10:00 1022 30.18 851 25.13 11.5 52.8 51 1.8 35.3
10:05 1022 30.18 851 25.13 11.8 53.3 51 2.1 35.7
10:10 1022 30.18 851 25.13 11.8 53.2 51 1.9 35.5
10:15 1022 30.18 851 25.13 11.8 53.3 50 1.7 35.1
10:20 1021 30.15 851 25.13 12.2 53.9 51 2.4 36.3
10:25 1021 30.15 851 25.13 12.3 54.2 49 2 35.6
10:30 1021 30.15 851 25.13 12.7 54.8 49 2.4 36.4
10:35 1021 30.15 851 25.13 12.9 55.3 49 2.7 36.8
10:40 1021 30.15 851 25.13 13 55.4 48 2.4 36.4
10:45 1021 30.15 850 25.1 13.3 55.9 48 2.7 36.8
10:50 1021 30.15 850 25.1 13.4 56.1 50 3.2 37.7
10:55 1021 30.15 850 25.1 13.4 56 48 2.8 37
11:00 1021 30.15 850 25.1 13.4 56.2 48 2.6 36.7
11:05 1021 30.15 850 25.1 13.7 56.6 47 2.6 36.7
11:10 1021 30.15 850 25.1 14.1 57.4 44 2.1 35.8
11:15 1021 30.15 850 25.1 14.9 58.8 41 2 35.6
11:20 1021 30.15 851 25.13 15.5 60 42 2.6 36.8
11:25 1021 30.15 851 25.13 15.8 60.4 41 2.7 36.9
11:30 1021 30.15 851 25.13 15.9 60.6 41 2.8 37
11:35 1021 30.15 851 25.13 16.1 60.9 41 2.9 37.2
11:40 1021 30.15 851 25.13 16.3 61.3 42 3.5 38.3
11:45 1021 30.15 851 25.13 16.3 61.4 41 3.1 37.5
11:50 1021 30.15 851 25.13 16.4 61.6 39 2.7 36.9
11:55 1021 30.15 851 25.13 16.6 61.9 39 2.9 37.1
12:00 1021 30.15 851 25.13 16.6 61.9 39 2.8 37
12:05 1021 30.15 851 25.13 16.6 61.8 38 2.1 35.8
12:10 1021 30.15 851 25.13 16.6 62 40 3.1 37.5
12:15 1021 30.15 851 25.13 16.4 61.6 41 3.2 37.8
12:20 1021 30.15 851 25.13 16.2 61.2 41 3.2 37.8
12:25 1021 30.15 851 25.13 16.1 61 41 2.8 37
12:30 1021 30.15 851 25.13 16 60.8 40 2.6 36.7
12:35 1021 30.15 851 25.13 16.1 61 39 2.2 36
12:40 1021 30.15 851 25.13 16.1 61 38 1.8 35.3
12:45 1021 30.15 850 25.1 16.2 61.1 38 1.8 35.2
12:50 1021 30.15 850 25.1 16.3 61.4 36 1.4 34.6
12:55 1021 30.15 850 25.1 16.5 61.7 37 1.7 35.1
13:00 1021 30.15 850 25.1 16.8 62.2 36 1.6 34.9
13:05 1021 30.15 850 25.1 16.9 62.4 36 1.8 35.3
13:10 1021 30.15 850 25.1 17.1 62.7 36 1.9 35.4
13:15 1021 30.15 850 25.1 17.3 63.2 34 1.4 34.5
13:20 1021 30.15 850 25.1 17.5 63.5 34 1.7 35
13:25 1021 30.15 850 25.1 17.5 63.5 34 1.6 34.9
13:30 1021 30.15 850 25.1 17.5 63.5 35 1.9 35.4
13:35 1021 30.15 850 25.1 17.4 63.3 35 2 35.7
13:40 1021 30.15 850 25.1 17.5 63.5 35 1.9 35.4
13:45 1021 30.15 850 25.1 17.7 63.8 34 1.9 35.5
13:50 1021 30.15 850 25.1 17.6 63.7 35 2.2 36
13:55 1021 30.15 850 25.1 17.7 63.8 35 2.2 36
14:00 1021 30.15 850 25.1 17.7 63.9 35 2.4 36.2
14:05 1021 30.15 850 25.1 17.8 64 36 2.8 37
14:10 1021 30.15 850 25.1 17.9 64.2 37 3 37.4
14:15 1021 30.15 850 25.1 17.7 63.9 38 3.3 38
14:20 1021 30.15 850 25.1 17.6 63.7 39 3.5 38.3
14:25 1021 30.15 850 25.1 17.6 63.8 36 2.6 36.7
14:30 1021 30.15 850 25.1 17.8 64 34 1.7 35.1
14:35 1020 30.12 850 25.1 17.6 63.8 34 1.8 35.3
14:40 1020 30.12 850 25.1 17.6 63.7 35 1.9 35.5
14:45 1020 30.12 850 25.1 17.6 63.6 34 1.7 35
14:50 1020 30.12 850 25.1 17.6 63.7 34 1.7 35.1
14:55 1020 30.12 849 25.07 17.6 63.8 33 1.1 34
15:00 1020 30.12 849 25.07 17.7 63.9 33 1.3 34.4
15:05 1020 30.12 849 25.07 17.8 64 33 1.5 34.7
15:10 1020 30.12 849 25.07 18 64.4 33 1.5 34.8
15:15 1020 30.12 849 25.07 18 64.4 32 1.2 34.1
15:20 1020 30.12 849 25.07 18.1 64.6 32 1.4 34.5
15:25 1020 30.12 849 25.07 18.2 64.7 32 1.4 34.5
15:30 1020 30.12 849 25.07 18.2 64.7 32 1.4 34.5
15:35 1020 30.12 849 25.07 18.1 64.6 32 1.4 34.6
15:40 1020 30.12 849 25.07 18.2 64.8 32 1.3 34.4
15:45 1020 30.12 849 25.07 18.2 64.7 33 1.9 35.5
15:50 1020 30.12 849 25.07 18.2 64.7 34 2 35.6
15:55 1020 30.12 850 25.1 18.2 64.7 34 2.1 35.7
16:00 1020 30.12 850 25.1 18 64.4 33 1.5 34.7
16:05 1020 30.12 850 25.1 17.9 64.3 33 1.4 34.5
16:10 1020 30.12 850 25.1 17.9 64.3 33 1.7 35
16:15 1021 30.15 850 25.1 18 64.3 33 1.7 35
16:20 1021 30.15 850 25.1 17.9 64.2 33 1.5 34.7
16:25 1020 30.12 850 25.1 17.8 64 33 1.4 34.6
16:30 1020 30.12 850 25.1 17.8 64 34 1.6 34.9
16:35 1020 30.12 850 25.1 17.8 64 35 2.2 35.9
16:40 1020 30.12 850 25.1 17.7 63.8 33 1.4 34.6
16:45 1020 30.12 850 25.1 17.8 64 32 1.1 34
16:50 1020 30.12 850 25.1 17.8 64 30 0.2 32.4
16:55 1020 30.12 850 25.1 17.8 64 31 0.7 33.2
17:00 1020 30.12 850 25.1 17.7 63.9 32 1 33.9
17:05 1020 30.12 850 25.1 17.7 63.8 32 0.8 33.4
17:10 1020 30.12 850 25.1 17.6 63.6 31 0.5 33
17:15 1020 30.12 850 25.1 17.5 63.5 33 1 33.8
17:20 1020 30.12 850 25.1 17.4 63.3 34 1.5 34.8
17:25 1020 30.12 850 25.1 17.3 63.1 32 0.6 33.1
17:30 1020 30.12 849 25.07 17.1 62.8 33 0.8 33.4
17:35 1020 30.12 849 25.07 16.9 62.4 34 1 33.7
17:40 1020 30.12 849 25.07 16.6 61.9 35 1.1 34
17:45 1020 30.12 849 25.07 16.6 61.8 36 1.6 34.9
17:50 1020 30.12 849 25.07 16.5 61.6 39 2.7 36.9
17:55 1020 30.12 849 25.07 16.5 61.6 36 1.3 34.4
18:00 1020 30.12 849 25.07 16.6 61.9 37 1.9 35.5
18:05 1020 30.12 849 25.07 16.5 61.7 35 1.1 34
18:10 1020 30.12 850 25.1 16.5 61.7 37 1.9 35.3
18:15 1020 30.12 849 25.07 16.2 61.1 39 2.1 35.9
18:20 1020 30.12 849 25.07 15.9 60.6 37 1.3 34.3
18:25 1020 30.12 849 25.07 16 60.8 37 1.5 34.6
18:30 1020 30.12 850 25.1 16.1 61 36 1.2 34.2
18:35 1020 30.12 849 25.07 16.2 61.1 36 1.4 34.5
18:40 1020 30.12 849 25.07 16.1 61 36 1.2 34.1
18:45 1020 30.12 850 25.1 16.2 61.1 36 1.3 34.3
18:50 1020 30.12 850 25.1 16.3 61.3 34 0.5 33
18:55 1020 30.12 850 25.1 16.4 61.5 35 0.9 33.6
19:00 1020 30.12 850 25.1 16.4 61.5 34 0.7 33.2
19:05 1020 30.12 850 25.1 16.4 61.6 34 0.6 33.1
19:10 1020 30.12 850 25.1 16.5 61.6 35 1 33.9
19:15 1020 30.12 850 25.1 16.5 61.7 34 0.7 33.3
19:20 1020 30.12 850 25.1 16.6 61.9 34 0.6 33.1
19:25 1020 30.12 850 25.1 16.5 61.8 34 0.9 33.6
19:30 1020 30.12 850 25.1 16.4 61.6 35 1.1 34
19:35 1020 30.12 849 25.07 16.3 61.3 35 0.8 33.5
19:40 1020 30.12 849 25.07 16.2 61.2 35 1 33.8
19:45 1020 30.12 849 25.07 16.2 61.2 34 0.3 32.6
19:50 1020 30.12 849 25.07 16.3 61.4 34 0.5 33
19:55 1020 30.12 849 25.07 16.3 61.3 34 0.5 32.9
20:00 1020 30.12 849 25.07 16.2 61.1 35 0.9 33.6
20:05 1020 30.12 849 25.07 16 60.9 35 0.5 32.9
20:10 1020 30.12 849 25.07 16 60.8 36 0.9 33.7
20:15 1020 30.12 849 25.07 15.9 60.6 35 0.5 32.8
20:20 1020 30.12 849 25.07 16 60.7 35 0.6 33.2
20:25 1020 30.12 849 25.07 15.8 60.5 35 0.5 33
20:30 1020 30.12 849 25.07 15.8 60.4 35 0.6 33.1
20:35 1020 30.12 849 25.07 15.7 60.3 36 0.7 33.2
20:40 1020 30.12 849 25.07 15.7 60.3 34 0.1 32.2
20:45 1020 30.12 849 25.07 15.9 60.6 35 0.7 33.3
20:50 1020 30.12 849 25.07 15.6 60.1 35 0.3 32.6
20:55 1020 30.12 849 25.07 15.6 60.1 36 0.8 33.4
21:00 1020 30.12 849 25.07 15.3 59.6 36 0.4 32.7
21:05 1020 30.12 849 25.07 15.5 59.9 35 0.2 32.3
21:10 1020 30.12 849 25.07 15.6 60.1 35 0.3 32.6
21:15 1020 30.12 849 25.07 15.4 59.7 36 0.7 33.2
21:20 1020 30.12 849 25.07 15.1 59.2 37 0.7 33.2
21:25 1020 30.12 849 25.07 14.7 58.5 39 1 33.9
21:30 1020 30.12 849 25.07 14.5 58.2 40 1 33.8
21:35 1020 30.12 849 25.07 14.4 58 39 0.9 33.6
21:40 1020 30.12 849 25.07 14.3 57.7 41 1.2 34.1
21:45 1020 30.12 849 25.07 14.1 57.4 40 0.7 33.2
21:50 1020 30.12 849 25.07 14.3 57.7 39 0.6 33.1
21:55 1020 30.12 849 25.07 14.5 58.1 38 0.3 32.6
22:00 1020 30.12 849 25.07 14.7 58.4 38 0.6 33.2
22:05 1020 30.12 849 25.07 14.3 57.7 39 0.8 33.4
22:10 1020 30.12 849 25.07 14.3 57.7 41 1.1 34
22:15 1020 30.12 849 25.07 13.7 56.7 43 1.4 34.5
22:20 1020 30.12 849 25.07 13.5 56.3 40 0.4 32.7
22:25 1020 30.12 849 25.07 13.7 56.7 42 1.1 34
22:30 1020 30.12 849 25.07 13.6 56.4 40 0.5 32.9
22:35 1020 30.12 849 25.07 13.9 57.1 40 0.6 33.1
22:40 1020 30.12 849 25.07 13.7 56.6 41 0.9 33.6
22:45 1020 30.12 849 25.07 13.3 56 42 0.7 33.2
22:50 1020 30.12 849 25.07 13.4 56.1 41 0.6 33.2
22:55 1020 30.12 849 25.07 13.5 56.3 41 0.5 33
23:00 1020 30.12 849 25.07 13.8 56.8 39 0.1 32.2
23:05 1020 30.12 849 25.07 14.2 57.6 39 0.6 33
23:10 1020 30.12 849 25.07 13.8 56.8 41 0.9 33.6
23:15 1020 30.12 849 25.07 13.4 56.2 40 0.3 32.6
23:20 1020 30.12 849 25.07 13.3 56 42 0.6 33.1
23:25 1020 30.12 849 25.07 13.3 55.9 40 0.2 32.3
23:30 1020 30.12 849 25.07 13.3 56 42 0.7 33.2
23:35 1020 30.12 849 25.07 12.9 55.3 44 1 33.7
23:40 1020 30.12 849 25.07 12.4 54.4 45 0.9 33.6
23:45 1020 30.12 849 25.07 12.2 54 46 1.1 33.9
23:50 1020 30.12 849 25.07 12.2 54 44 0.4 32.7
23:55 1020 30.12 849 25.07 12.5 54.4 43 0.3 32.6
24:00 1020 30.12 849 25.07 12.8 55.1 44 1 33.7